Time;durP1;ratioP1;P1;durP2;ratioP2;P2;SDS_P1;SDS_P2;PMS_P1;PMS_P2;Temp;Humidity;BMP_temperature;BMP_pressure;BME280_temperature;BME280_humidity;BME280_pressure;Samples;Min_cycle;Max_cycle;Signal;HPM_P1;HPM_P2
2023/11/29 00:02:11;;;;;;;4.82;2.40;;;;;;;-5.18;66.84;100111.97;5094390;28;20028;-67
2023/11/29 00:04:37;;;;;;;3.38;2.30;;;;;;;-5.23;66.82;100108.88;5091538;28;20024;-68
2023/11/29 00:07:03;;;;;;;5.68;2.20;;;;;;;-5.24;66.86;100110.66;5094540;28;20140;-68
2023/11/29 00:09:28;;;;;;;3.60;2.10;;;;;;;-5.26;66.98;100109.13;5094634;28;20024;-67
2023/11/29 00:11:53;;;;;;;3.75;1.77;;;;;;;-5.23;66.93;100111.50;5094766;28;20032;-67
2023/11/29 00:14:18;;;;;;;4.65;2.05;;;;;;;-5.24;66.81;100110.66;5095226;28;20490;-67
2023/11/29 00:16:44;;;;;;;5.65;1.98;;;;;;;-5.17;66.66;100111.03;5076867;28;20040;-68
2023/11/29 00:19:09;;;;;;;3.88;2.05;;;;;;;-5.16;66.54;100106.63;5099335;28;20024;-67
2023/11/29 00:21:40;;;;;;;3.40;1.77;;;;;;;-5.25;66.77;100102.91;5099257;28;20463;-67
2023/11/29 00:24:06;;;;;;;2.95;1.70;;;;;;;-5.31;66.58;100103.38;5099595;28;20141;-67
2023/11/29 00:26:32;;;;;;;4.05;1.70;;;;;;;-5.32;66.83;100105.16;5097967;28;20498;-67
2023/11/29 00:28:57;;;;;;;2.50;1.65;;;;;;;-5.37;66.74;100107.28;5099480;28;20039;-67
2023/11/29 00:31:22;;;;;;;2.42;1.63;;;;;;;-5.40;66.63;100104.88;5098081;28;20040;-68
2023/11/29 00:33:48;;;;;;;3.75;1.70;;;;;;;-5.51;66.79;100097.81;5081070;28;20032;-67
2023/11/29 00:36:13;;;;;;;3.20;1.60;;;;;;;-5.59;66.93;100091.50;5097276;28;20036;-67
2023/11/29 00:38:39;;;;;;;3.47;1.30;;;;;;;-5.69;67.11;100089.53;5097376;28;20073;-67
2023/11/29 00:41:04;;;;;;;2.13;1.30;;;;;;;-5.72;67.58;100091.53;5097948;28;20118;-67
2023/11/29 00:43:31;;;;;;;3.28;1.30;;;;;;;-5.78;67.52;100086.75;5098254;28;20034;-67
2023/11/29 00:45:56;;;;;;;3.45;1.70;;;;;;;-5.77;67.40;100099.72;5098682;28;20058;-67
2023/11/29 00:48:21;;;;;;;2.20;1.40;;;;;;;-5.77;67.28;100093.66;5097231;28;20036;-67
2023/11/29 00:50:47;;;;;;;2.72;1.50;;;;;;;-5.77;67.01;100101.50;5097488;28;20036;-67
2023/11/29 00:53:12;;;;;;;3.10;1.20;;;;;;;-5.73;66.94;100102.97;5080403;28;20039;-67
2023/11/29 00:55:37;;;;;;;4.20;1.50;;;;;;;-5.72;66.94;100102.03;5096728;28;20038;-67
2023/11/29 00:58:03;;;;;;;2.38;1.42;;;;;;;-5.90;66.76;100084.06;5096790;28;20149;-67
2023/11/29 01:00:29;;;;;;;2.70;1.40;;;;;;;-5.77;67.09;100110.22;5098441;28;20035;-67
2023/11/29 01:02:56;;;;;;;2.42;1.50;;;;;;;-5.81;66.59;100097.44;5093737;28;20016;-67
2023/11/29 01:05:21;;;;;;;3.92;1.58;;;;;;;-5.80;66.28;100107.81;5077465;28;20050;-67
2023/11/29 01:07:46;;;;;;;2.85;1.60;;;;;;;-5.98;66.37;100080.38;5080555;28;20024;-67
2023/11/29 01:10:12;;;;;;;4.35;2.50;;;;;;;-5.87;66.02;100109.22;5097087;28;20024;-67
2023/11/29 01:12:37;;;;;;;4.40;2.42;;;;;;;-5.99;66.23;100104.91;5096718;28;20036;-66
2023/11/29 01:15:03;;;;;;;4.35;2.10;;;;;;;-6.11;66.42;100092.69;5079887;28;20024;-67
2023/11/29 01:17:29;;;;;;;4.55;2.22;;;;;;;-5.99;66.04;100104.91;5063889;28;20394;-67
2023/11/29 01:19:54;;;;;;;4.47;2.20;;;;;;;-6.05;65.82;100100.09;5098432;28;20030;-67
2023/11/29 01:22:20;;;;;;;3.38;1.90;;;;;;;-6.16;66.36;100095.63;5098389;28;20055;-67
2023/11/29 01:24:45;;;;;;;4.20;1.88;;;;;;;-6.22;66.43;100089.06;5096285;28;20067;-67
2023/11/29 01:27:11;;;;;;;2.30;1.50;;;;;;;-6.17;66.54;100086.91;5080293;28;20038;-67
2023/11/29 01:29:37;;;;;;;4.22;1.60;;;;;;;-6.16;66.41;100082.53;5096200;28;20144;-67
2023/11/29 01:32:03;;;;;;;2.85;1.70;;;;;;;-6.33;66.16;100059.34;5097461;28;20032;-67
2023/11/29 01:34:28;;;;;;;1.90;1.38;;;;;;;-6.24;66.35;100074.41;5096577;28;20024;-67
2023/11/29 01:36:54;;;;;;;3.17;1.83;;;;;;;-6.17;66.47;100080.84;5097714;28;20106;-67
2023/11/29 01:39:19;;;;;;;3.63;1.60;;;;;;;-6.20;66.41;100086.31;5097223;28;20104;-67
2023/11/29 01:41:44;;;;;;;3.08;1.50;;;;;;;-6.20;66.26;100084.53;5097116;28;20071;-67
2023/11/29 01:44:10;;;;;;;4.18;2.10;;;;;;;-6.31;65.98;100070.53;5079387;28;20031;-66
2023/11/29 01:46:35;;;;;;;5.15;1.77;;;;;;;-6.30;65.97;100088.75;5097007;28;20032;-67
2023/11/29 01:49:01;;;;;;;5.50;2.08;;;;;;;-6.34;65.92;100081.22;5097176;28;20031;-67
2023/11/29 01:51:27;;;;;;;5.57;2.42;;;;;;;-6.40;65.87;100082.50;5079205;28;20032;-67
2023/11/29 01:53:53;;;;;;;4.53;2.25;;;;;;;-6.50;65.89;100069.22;5096950;28;20020;-67
2023/11/29 01:56:21;;;;;;;3.35;1.50;;;;;;;-6.48;66.15;100079.59;5097290;28;20028;-67
2023/11/29 01:58:46;;;;;;;3.85;1.85;;;;;;;-6.52;66.35;100080.72;5097321;28;20059;-66
2023/11/29 02:01:13;;;;;;;5.85;1.65;;;;;;;-6.46;66.39;100075.06;5097053;28;20038;-67
2023/11/29 02:03:39;;;;;;;3.53;1.55;;;;;;;-6.42;65.60;100074.75;5095839;28;20024;-67
2023/11/29 02:06:05;;;;;;;2.78;1.63;;;;;;;-6.42;66.07;100071.31;5096995;28;20034;-67
2023/11/29 02:08:32;;;;;;;3.78;1.83;;;;;;;-6.57;66.03;100046.22;5097525;28;20100;-67
2023/11/29 02:10:57;;;;;;;4.00;1.45;;;;;;;-6.35;66.03;100076.94;5096034;28;20036;-66
2023/11/29 02:13:23;;;;;;;3.53;1.90;;;;;;;-6.49;66.15;100049.13;5097344;28;20039;-67
2023/11/29 02:15:49;;;;;;;1.92;1.45;;;;;;;-6.31;66.34;100073.16;5097284;28;20023;-66
2023/11/29 02:18:14;;;;;;;2.92;1.70;;;;;;;-6.32;66.07;100069.72;5095835;28;20065;-67
2023/11/29 02:20:40;;;;;;;3.17;1.50;;;;;;;-6.38;66.23;100070.16;5097432;28;20024;-67
2023/11/29 02:23:15;;;;;;;2.58;1.70;;;;;;;-6.36;66.42;100070.84;5097029;28;20474;-67
2023/11/29 02:25:40;;;;;;;2.33;1.50;;;;;;;-6.27;66.07;100066.75;5095595;28;20048;-67
2023/11/29 02:28:06;;;;;;;2.92;1.50;;;;;;;-6.29;66.11;100061.63;5059599;28;20031;-67
2023/11/29 02:30:31;;;;;;;3.00;1.85;;;;;;;-6.28;66.55;100063.31;5074204;28;20093;-67
2023/11/29 02:32:57;;;;;;;3.15;1.73;;;;;;;-6.23;66.10;100063.78;5096047;28;20093;-67
2023/11/29 02:35:22;;;;;;;4.90;1.55;;;;;;;-6.28;66.27;100042.38;5096630;28;20028;-66
2023/11/29 02:37:47;;;;;;;2.92;1.63;;;;;;;-6.21;66.43;100054.06;5094756;28;20028;-66
2023/11/29 02:40:13;;;;;;;4.30;1.70;;;;;;;-6.17;66.36;100057.28;5077081;28;20115;-67
2023/11/29 02:42:38;;;;;;;2.78;1.95;;;;;;;-6.12;66.45;100062.19;5095453;28;20028;-67
2023/11/29 02:45:04;;;;;;;2.58;1.60;;;;;;;-6.10;66.48;100044.59;5096186;28;20148;-66
2023/11/29 02:47:30;;;;;;;3.95;1.60;;;;;;;-6.02;66.35;100045.72;5078262;28;20032;-67
2023/11/29 02:49:55;;;;;;;3.58;1.60;;;;;;;-5.95;66.76;100048.72;5096382;28;20035;-67
2023/11/29 02:52:20;;;;;;;2.28;1.35;;;;;;;-5.95;66.36;100048.72;5096035;28;20032;-67
2023/11/29 02:54:46;;;;;;;2.63;1.35;;;;;;;-5.92;66.63;100051.09;5095768;28;20020;-67
2023/11/29 02:57:11;;;;;;;2.22;1.52;;;;;;;-5.89;66.66;100048.25;5093733;28;20036;-66
2023/11/29 02:59:36;;;;;;;2.88;1.50;;;;;;;-5.97;66.25;100048.81;5092909;28;20048;-67
2023/11/29 03:02:02;;;;;;;4.10;2.03;;;;;;;-6.06;66.23;100031.19;5094069;28;20040;-67
2023/11/29 03:04:27;;;;;;;4.03;1.70;;;;;;;-5.97;66.37;100040.13;5095051;28;20083;-67
2023/11/29 03:06:52;;;;;;;5.78;2.20;;;;;;;-5.98;66.63;100038.47;5094438;28;20085;-66
2023/11/29 03:09:18;;;;;;;3.90;1.92;;;;;;;-5.89;66.38;100043.00;5095236;28;20110;-67
2023/11/29 03:11:43;;;;;;;2.67;1.55;;;;;;;-5.82;66.71;100043.38;5077849;28;20036;-66
2023/11/29 03:14:09;;;;;;;2.88;1.50;;;;;;;-5.90;66.70;100015.13;5095678;28;20036;-67
2023/11/29 03:16:34;;;;;;;2.75;1.60;;;;;;;-5.88;66.36;100017.63;5094711;28;20115;-67
2023/11/29 03:18:59;;;;;;;3.25;1.67;;;;;;;-5.64;66.66;100041.19;5094034;28;20028;-68
2023/11/29 03:21:25;;;;;;;4.32;1.58;;;;;;;-5.55;66.65;100030.03;5093851;28;20170;-67
2023/11/29 03:23:51;;;;;;;2.95;1.70;;;;;;;-5.44;66.56;100027.41;5092871;28;20035;-67
2023/11/29 03:26:16;;;;;;;3.60;1.50;;;;;;;-5.41;66.45;100026.34;5076937;28;20038;-67
2023/11/29 03:28:41;;;;;;;2.25;1.48;;;;;;;-5.36;66.61;100027.69;5094274;28;20556;-67
2023/11/29 03:31:06;;;;;;;2.75;1.77;;;;;;;-5.30;66.90;100021.94;5090819;28;20059;-67
2023/11/29 03:33:32;;;;;;;4.03;1.40;;;;;;;-5.20;66.94;100022.09;5094112;28;20514;-67
2023/11/29 03:35:57;;;;;;;2.67;1.80;;;;;;;-5.14;66.93;100020.78;5094031;28;20034;-67
2023/11/29 03:38:22;;;;;;;4.60;2.42;;;;;;;-5.13;66.87;100023.31;5095673;28;20027;-67
2023/11/29 03:40:48;;;;;;;5.35;2.78;;;;;;;-5.13;66.79;100017.19;5094428;28;20036;-67
2023/11/29 03:43:13;;;;;;;5.85;2.55;;;;;;;-5.10;67.04;100017.81;5094748;28;20077;-67
2023/11/29 03:45:39;;;;;;;4.20;2.28;;;;;;;-5.06;67.19;100010.56;5095971;28;20028;-67
2023/11/29 03:48:04;;;;;;;3.58;2.10;;;;;;;-5.06;66.97;100013.19;5095374;28;20064;-67
2023/11/29 03:50:29;;;;;;;3.95;1.95;;;;;;;-5.16;67.04;99992.06;5094994;28;20042;-67
2023/11/29 03:52:55;;;;;;;3.67;2.00;;;;;;;-5.07;67.01;99978.22;5093946;28;20028;-67
2023/11/29 03:55:20;;;;;;;2.75;1.52;;;;;;;-4.76;67.25;100002.06;5095668;28;20024;-67
2023/11/29 03:57:45;;;;;;;2.15;1.48;;;;;;;-4.67;67.05;100008.38;5094875;28;20027;-67
2023/11/29 04:00:13;;;;;;;2.47;1.50;;;;;;;-4.60;67.48;99996.41;5060139;28;20123;-67
2023/11/29 04:02:39;;;;;;;2.30;1.40;;;;;;;-4.52;67.48;100000.13;5094229;28;20024;-66
2023/11/29 04:05:04;;;;;;;2.53;1.45;;;;;;;-4.43;67.92;100000.34;5093605;28;20028;-67
2023/11/29 04:07:30;;;;;;;3.40;1.83;;;;;;;-4.34;67.87;99997.84;5094696;28;20028;-67
2023/11/29 04:09:55;;;;;;;2.42;1.48;;;;;;;-4.27;67.99;99982.41;5093797;28;20024;-67
2023/11/29 04:12:20;;;;;;;2.58;1.48;;;;;;;-4.17;67.88;99988.59;5077360;28;20052;-67
2023/11/29 04:14:46;;;;;;;2.63;1.55;;;;;;;-4.07;68.18;99988.66;5093836;28;20056;-67
2023/11/29 04:17:11;;;;;;;2.50;1.50;;;;;;;-4.01;68.30;99990.78;5092184;28;20047;-67
2023/11/29 04:19:39;;;;;;;1.98;1.42;;;;;;;-3.98;68.34;99977.38;5072827;28;20043;-67
2023/11/29 04:22:04;;;;;;;2.53;1.38;;;;;;;-3.91;68.62;99982.97;5093806;28;20463;-67
2023/11/29 04:24:30;;;;;;;2.60;1.48;;;;;;;-3.83;68.51;99977.94;5094181;28;20036;-67
2023/11/29 04:26:55;;;;;;;2.83;1.50;;;;;;;-3.69;68.37;99982.88;5093850;28;20507;-67
2023/11/29 04:29:21;;;;;;;2.75;1.63;;;;;;;-3.60;68.43;99981.28;5095285;28;20040;-68
2023/11/29 04:31:46;;;;;;;2.30;1.65;;;;;;;-3.57;68.47;99970.50;5093552;28;20035;-67
2023/11/29 04:34:11;;;;;;;2.85;1.60;;;;;;;-3.49;68.33;99968.03;5094828;28;20050;-67
2023/11/29 04:36:39;;;;;;;2.80;1.48;;;;;;;-3.54;68.90;99954.47;5093851;28;20028;-67
2023/11/29 04:39:09;;;;;;;2.20;1.60;;;;;;;-3.45;68.54;99969.44;5094987;28;20362;-67
2023/11/29 04:41:35;;;;;;;2.38;1.50;;;;;;;-3.37;68.93;99961.75;5090679;28;20111;-67
2023/11/29 04:44:00;;;;;;;2.45;1.70;;;;;;;-3.29;68.79;99952.38;5094721;28;20114;-68
2023/11/29 04:46:26;;;;;;;3.03;1.77;;;;;;;-3.25;68.89;99953.75;5077207;28;20085;-68
2023/11/29 04:48:51;;;;;;;2.30;1.58;;;;;;;-3.23;69.07;99962.38;5093871;28;20059;-67
2023/11/29 04:51:16;;;;;;;2.47;1.67;;;;;;;-3.19;69.65;99953.25;5095103;28;20484;-67
2023/11/29 04:53:42;;;;;;;2.50;1.77;;;;;;;-3.06;69.58;99959.13;5093712;28;20490;-67
2023/11/29 04:56:08;;;;;;;2.63;1.60;;;;;;;-3.09;69.40;99941.78;5076711;28;20115;-67
2023/11/29 04:58:39;;;;;;;3.25;1.73;;;;;;;-2.94;69.68;99952.78;5093618;28;20121;-67
2023/11/29 05:01:05;;;;;;;2.38;1.60;;;;;;;-2.86;69.38;99949.50;5075112;28;20078;-67
2023/11/29 05:03:31;;;;;;;2.78;1.90;;;;;;;-2.81;69.55;99952.56;5092316;28;20050;-68
2023/11/29 05:05:56;;;;;;;4.40;1.85;;;;;;;-2.91;69.69;99922.75;5096284;28;20036;-67
2023/11/29 05:08:22;;;;;;;5.82;1.85;;;;;;;-2.68;69.71;99941.75;5097205;28;20027;-67
2023/11/29 05:10:47;;;;;;;3.10;2.10;;;;;;;-2.74;69.44;99945.78;5113937;28;20023;-66
2023/11/29 05:13:13;;;;;;;3.05;2.03;;;;;;;-2.79;69.07;99944.53;5079997;28;20032;-67
2023/11/29 05:15:41;;;;;;;3.63;2.50;;;;;;;-2.93;69.51;99948.38;5097298;28;20027;-66
2023/11/29 05:18:06;;;;;;;3.55;2.20;;;;;;;-2.95;69.79;99948.47;5097255;28;20016;-65
2023/11/29 05:20:32;;;;;;;3.30;2.05;;;;;;;-2.89;70.32;99945.31;5096880;28;20497;-66
2023/11/29 05:22:57;;;;;;;3.05;2.08;;;;;;;-2.83;69.82;99946.59;5079983;28;20103;-67
2023/11/29 05:25:24;;;;;;;3.22;1.88;;;;;;;-2.79;69.88;99944.53;5096732;28;20032;-68
2023/11/29 05:27:50;;;;;;;10.93;3.72;;;;;;;-2.74;69.92;99947.59;5096761;28;20031;-69
2023/11/29 05:30:16;;;;;;;3.53;2.10;;;;;;;-2.82;69.94;99924.56;5096845;28;20661;-68
2023/11/29 05:32:42;;;;;;;3.15;2.15;;;;;;;-2.70;69.95;99944.53;5096483;28;20024;-68
2023/11/29 05:35:07;;;;;;;4.53;2.22;;;;;;;-2.87;69.45;99909.16;5097744;28;20510;-67
2023/11/29 05:37:33;;;;;;;5.40;2.38;;;;;;;-2.75;69.94;99935.38;5095641;28;20482;-66
2023/11/29 05:39:58;;;;;;;3.55;2.40;;;;;;;-2.72;69.85;99937.75;5098177;28;20024;-66
2023/11/29 05:42:23;;;;;;;2.47;1.77;;;;;;;-2.65;69.85;99923.91;5096675;28;20027;-66
2023/11/29 05:44:49;;;;;;;2.47;1.77;;;;;;;-2.64;70.40;99937.91;5097754;28;20040;-66
2023/11/29 05:47:15;;;;;;;3.90;2.00;;;;;;;-2.88;70.66;99894.34;5096487;28;20031;-67
2023/11/29 05:49:41;;;;;;;3.33;2.20;;;;;;;-2.58;70.60;99934.75;5096628;28;20035;-66
2023/11/29 05:52:06;;;;;;;3.17;2.00;;;;;;;-2.58;71.32;99932.13;5097421;28;20032;-67
2023/11/29 05:54:32;;;;;;;3.10;1.95;;;;;;;-2.49;71.36;99931.28;5079847;28;20032;-67
2023/11/29 05:56:57;;;;;;;4.75;2.13;;;;;;;-2.43;71.30;99924.63;5098267;28;20024;-66
2023/11/29 05:59:23;;;;;;;4.32;2.08;;;;;;;-2.45;71.65;99922.16;5096140;28;20522;-67
2023/11/29 06:01:51;;;;;;;2.63;2.00;;;;;;;-2.41;71.67;99923.53;5093633;28;20031;-67
2023/11/29 06:04:16;;;;;;;2.15;1.52;;;;;;;-2.33;72.06;99922.00;5093002;28;20028;-67
2023/11/29 06:06:42;;;;;;;1.45;1.13;;;;;;;-2.31;74.63;99917.44;5092619;28;20111;-67
2023/11/29 06:09:08;;;;;;;2.33;1.30;;;;;;;-2.01;74.81;99922.56;5076847;28;20024;-66
2023/11/29 06:11:39;;;;;;;2.15;1.38;;;;;;;-1.90;75.70;99924.22;5075875;28;20119;-67
2023/11/29 06:14:04;;;;;;;2.05;1.45;;;;;;;-1.76;74.39;99920.28;5093965;28;20032;-66
2023/11/29 06:16:30;;;;;;;2.33;1.40;;;;;;;-1.64;74.24;99918.34;5096466;28;20359;-66
2023/11/29 06:18:55;;;;;;;1.90;1.50;;;;;;;-1.69;74.69;99924.03;5096159;28;20039;-67
2023/11/29 06:21:20;;;;;;;1.65;1.17;;;;;;;-1.72;77.12;99906.72;5096121;28;20055;-66
2023/11/29 06:23:46;;;;;;;1.45;1.13;;;;;;;-1.49;76.67;99930.94;5077515;28;20028;-67
2023/11/29 06:26:11;;;;;;;1.55;1.40;;;;;;;-1.26;74.58;99925.28;5094211;28;20550;-67
2023/11/29 06:28:38;;;;;;;1.63;1.27;;;;;;;-1.12;74.71;99926.66;5095031;28;20039;-67
2023/11/29 06:31:06;;;;;;;1.23;1.13;;;;;;;-1.27;75.55;99890.16;5093587;28;20028;-67
2023/11/29 06:33:32;;;;;;;2.45;0.98;;;;;;;-0.98;75.40;99923.53;5094668;28;20059;-67
2023/11/29 06:36:01;;;;;;;1.35;1.10;;;;;;;-0.85;75.46;99917.91;5094998;28;20043;-66
2023/11/29 06:38:26;;;;;;;2.47;1.20;;;;;;;-0.89;75.66;99922.66;5094832;28;20039;-67
2023/11/29 06:40:52;;;;;;;3.40;1.20;;;;;;;-0.96;77.33;99917.13;5096431;28;20024;-66
2023/11/29 06:43:18;;;;;;;2.42;1.50;;;;;;;-0.75;77.57;99921.31;5094691;28;20032;-67
2023/11/29 06:45:43;;;;;;;2.75;1.30;;;;;;;-0.71;78.03;99915.59;5094938;28;20031;-67
2023/11/29 06:48:08;;;;;;;2.67;1.30;;;;;;;-0.73;78.64;99908.78;5095693;28;20058;-66
2023/11/29 06:50:34;;;;;;;2.75;1.23;;;;;;;-0.65;78.54;99914.16;5097203;28;20059;-67
2023/11/29 06:53:00;;;;;;;2.75;1.33;;;;;;;-0.68;79.06;99911.00;5078161;28;20036;-67
2023/11/29 06:55:26;;;;;;;1.50;1.30;;;;;;;-0.89;80.45;99890.09;5096142;28;20394;-67
2023/11/29 06:57:51;;;;;;;1.40;1.25;;;;;;;-0.71;80.87;99912.94;5095117;28;20111;-67
2023/11/29 07:00:17;;;;;;;2.33;1.15;;;;;;;-0.58;80.31;99914.41;5096284;28;20024;-67
2023/11/29 07:02:44;;;;;;;1.73;1.25;;;;;;;-0.37;79.59;99912.28;5095810;28;20016;-67
2023/11/29 07:05:10;;;;;;;1.50;1.10;;;;;;;-0.41;79.67;99910.13;5096203;28;20027;-67
2023/11/29 07:07:36;;;;;;;2.00;1.38;;;;;;;-0.27;79.44;99904.28;5095576;28;20032;-67
2023/11/29 07:10:03;;;;;;;8.60;4.63;;;;;;;-0.35;79.96;99899.78;5096509;28;20031;-67
2023/11/29 07:12:29;;;;;;;8.55;5.15;;;;;;;-0.56;80.96;99886.84;5094851;28;20395;-66
2023/11/29 07:14:58;;;;;;;2.30;1.80;;;;;;;-0.49;81.88;99897.66;5096560;28;20146;-67
2023/11/29 07:17:23;;;;;;;4.13;2.80;;;;;;;-0.44;82.28;99898.03;5096519;28;20429;-66
2023/11/29 07:19:49;;;;;;;11.60;8.15;;;;;;;-0.29;81.25;99893.88;5092971;28;20035;-66
2023/11/29 07:22:17;;;;;;;3.13;2.40;;;;;;;-0.34;81.65;99888.19;5093023;28;20048;-67
2023/11/29 07:24:44;;;;;;;28.73;18.70;;;;;;;-0.21;81.83;99879.91;5094380;28;20460;-67
2023/11/29 07:27:09;;;;;;;17.30;10.52;;;;;;;-0.17;81.15;99880.41;5094197;28;20031;-66
2023/11/29 07:29:34;;;;;;;14.80;9.90;;;;;;;-0.14;81.26;99886.22;5093097;28;20025;-67
2023/11/29 07:32:00;;;;;;;13.82;10.82;;;;;;;-0.19;81.92;99885.03;5094801;28;20030;-66
2023/11/29 07:34:25;;;;;;;2.72;2.30;;;;;;;-0.24;81.62;99882.84;5095106;28;20024;-67
2023/11/29 07:36:52;;;;;;;4.75;3.03;;;;;;;-0.26;82.76;99876.91;5093852;28;20024;-66
2023/11/29 07:39:21;;;;;;;3.75;2.75;;;;;;;-0.46;83.44;99857.72;5091381;28;20074;-67
2023/11/29 07:41:49;;;;;;;4.05;3.53;;;;;;;-0.16;83.31;99871.53;5094421;28;20023;-67
2023/11/29 07:44:15;;;;;;;9.35;7.22;;;;;;;-0.22;83.41;99846.53;5095964;28;20023;-67
2023/11/29 07:46:43;;;;;;;4.00;1.85;;;;;;;-0.22;84.62;99867.66;5094128;28;20039;-67
2023/11/29 07:49:12;;;;;;;2.47;1.70;;;;;;;-0.26;85.46;99867.16;5095755;28;20065;-66
2023/11/29 07:51:45;;;;;;;2.15;1.85;;;;;;;-0.32;86.70;99872.22;5094387;28;20032;-66
2023/11/29 07:54:13;;;;;;;2.72;1.60;;;;;;;-0.12;85.99;99871.06;5095562;28;20070;-67
2023/11/29 07:56:41;;;;;;;3.60;1.65;;;;;;;-0.13;86.27;99872.03;5096108;28;20028;-66
2023/11/29 07:59:07;;;;;;;2.10;1.67;;;;;;;-0.20;87.02;99860.41;5078320;28;20059;-67
2023/11/29 08:01:32;;;;;;;2.10;1.90;;;;;;;-0.19;88.32;99862.06;5077907;28;20031;-66
2023/11/29 08:03:58;;;;;;;1.73;1.50;;;;;;;-0.16;88.17;99866.25;5095904;28;20483;-66
2023/11/29 08:06:23;;;;;;;2.65;1.40;;;;;;;-0.24;88.73;99854.59;5094731;28;20035;-67
2023/11/29 08:08:49;;;;;;;2.38;1.58;;;;;;;-0.14;89.61;99858.97;5093697;28;20038;-67
2023/11/29 08:11:15;;;;;;;1.67;1.38;;;;;;;0.06;88.80;99864.91;5090706;28;20085;-66
2023/11/29 08:13:40;;;;;;;1.80;1.45;;;;;;;-0.03;89.02;99856.09;5073670;28;20520;-67
2023/11/29 08:16:06;;;;;;;2.05;1.30;;;;;;;-0.07;89.78;99854.72;5094845;28;20047;-67
2023/11/29 08:18:31;;;;;;;1.73;1.17;;;;;;;-0.12;90.33;99857.84;5077119;28;20499;-66
2023/11/29 08:20:58;;;;;;;2.80;1.50;;;;;;;-0.12;89.98;99846.44;5095285;28;20027;-67
2023/11/29 08:23:23;;;;;;;1.83;1.40;;;;;;;-0.08;90.69;99845.97;5095425;28;20422;-67
2023/11/29 08:25:49;;;;;;;1.88;1.48;;;;;;;-0.27;89.44;99785.34;5095273;28;20071;-66
2023/11/29 08:28:14;;;;;;;3.85;1.50;;;;;;;-0.01;89.44;99833.78;5077513;28;20043;-67
2023/11/29 08:30:39;;;;;;;1.33;1.17;;;;;;;0.31;88.79;99852.69;5092881;28;20039;-67
2023/11/29 08:33:05;;;;;;;2.38;1.23;;;;;;;0.22;89.40;99851.78;5092997;28;20083;-67
2023/11/29 08:35:30;;;;;;;2.13;1.20;;;;;;;0.41;89.16;99848.94;5094216;28;20081;-67
2023/11/29 08:37:56;;;;;;;1.52;1.35;;;;;;;0.37;88.56;99828.25;5095188;28;20028;-67
2023/11/29 08:40:21;;;;;;;2.55;1.00;;;;;;;0.43;88.78;99839.03;5097730;28;20044;-67
2023/11/29 08:42:46;;;;;;;1.77;1.30;;;;;;;0.46;88.86;99844.00;5097785;28;20032;-67
2023/11/29 08:45:12;;;;;;;5.38;1.35;;;;;;;0.56;88.48;99851.81;5099421;28;20039;-66
2023/11/29 08:47:38;;;;;;;2.22;1.20;;;;;;;0.47;88.96;99842.19;5098249;28;20076;-67
2023/11/29 08:50:05;;;;;;;1.55;1.00;;;;;;;0.56;88.27;99848.31;5098040;28;20062;-67
2023/11/29 08:52:31;;;;;;;2.42;1.20;;;;;;;0.50;89.63;99851.59;5098191;28;20031;-67
2023/11/29 08:54:56;;;;;;;1.20;0.90;;;;;;;0.73;89.19;99852.72;5097659;28;20028;-67
2023/11/29 08:57:23;;;;;;;1.10;0.90;;;;;;;0.46;90.85;99854.59;5097770;28;20405;-67
2023/11/29 08:59:50;;;;;;;1.90;1.10;;;;;;;0.65;89.45;99845.56;5097854;28;20044;-67
2023/11/29 09:02:17;;;;;;;3.42;1.08;;;;;;;0.73;89.42;99850.09;5099310;28;20031;-67
2023/11/29 09:04:44;;;;;;;1.48;0.90;;;;;;;0.66;88.15;99849.03;5098810;28;20052;-67
2023/11/29 09:07:09;;;;;;;1.42;1.00;;;;;;;0.78;88.37;99837.19;5080520;28;20039;-67
2023/11/29 09:09:35;;;;;;;1.40;1.20;;;;;;;0.84;88.21;99846.31;5097378;28;20035;-67
2023/11/29 09:12:00;;;;;;;2.58;1.02;;;;;;;1.05;86.70;99840.56;5098458;28;20553;-67
2023/11/29 09:14:26;;;;;;;1.50;1.00;;;;;;;0.81;86.47;99834.22;5097166;28;20024;-67
2023/11/29 09:16:52;;;;;;;2.00;1.05;;;;;;;1.02;86.11;99844.38;5080374;28;20032;-68
2023/11/29 09:19:17;;;;;;;1.50;0.80;;;;;;;0.91;86.10;99837.56;5097100;28;20022;-67
2023/11/29 09:21:42;;;;;;;1.23;0.90;;;;;;;0.98;85.39;99840.41;5097210;28;20028;-67
2023/11/29 09:24:08;;;;;;;1.10;0.90;;;;;;;0.98;85.93;99836.91;5063298;28;20028;-67
2023/11/29 09:26:33;;;;;;;1.10;0.95;;;;;;;0.96;85.80;99838.88;5098155;28;20103;-68
2023/11/29 09:28:58;;;;;;;1.92;1.25;;;;;;;0.88;86.53;99837.06;5098499;28;20092;-68
2023/11/29 09:31:26;;;;;;;1.55;1.27;;;;;;;1.02;85.67;99830.31;5094039;28;20064;-67
2023/11/29 09:33:51;;;;;;;1.15;1.00;;;;;;;1.15;84.92;99826.19;5097552;28;20031;-67
2023/11/29 09:36:16;;;;;;;1.65;1.17;;;;;;;1.24;84.24;99828.88;5097417;28;20016;-68
2023/11/29 09:38:42;;;;;;;1.75;1.00;;;;;;;1.29;83.85;99832.72;5098166;28;20028;-67
2023/11/29 09:41:07;;;;;;;1.67;1.20;;;;;;;1.24;84.00;99820.94;5096980;28;20020;-67
2023/11/29 09:43:36;;;;;;;2.00;1.20;;;;;;;1.37;83.20;99821.28;5097008;28;20031;-67
2023/11/29 09:46:01;;;;;;;2.10;1.40;;;;;;;1.26;83.52;99803.88;5098281;28;20028;-67
2023/11/29 09:48:27;;;;;;;2.95;1.98;;;;;;;1.34;84.32;99825.06;5096992;28;20560;-67
2023/11/29 09:50:54;;;;;;;1.63;1.10;;;;;;;1.50;82.95;99808.38;5096245;28;20036;-67
2023/11/29 09:53:19;;;;;;;1.98;1.10;;;;;;;1.61;83.09;99815.16;5097987;28;20059;-67
2023/11/29 09:55:45;;;;;;;2.20;1.33;;;;;;;1.65;82.64;99801.41;5079719;28;20085;-67
2023/11/29 09:58:11;;;;;;;3.80;1.00;;;;;;;1.52;83.13;99814.31;5096246;28;20055;-68
2023/11/29 10:00:37;;;;;;;1.15;1.05;;;;;;;1.64;83.17;99812.19;5097931;28;20607;-67
2023/11/29 10:03:13;;;;;;;1.77;1.08;;;;;;;1.49;83.21;99782.88;5096365;28;20020;-68
2023/11/29 10:05:44;;;;;;;1.20;0.90;;;;;;;1.62;83.95;99806.19;5094560;28;20024;-68
2023/11/29 10:08:09;;;;;;;1.73;1.02;;;;;;;1.82;83.37;99801.38;5092903;28;20055;-67
2023/11/29 10:10:35;;;;;;;1.60;1.17;;;;;;;1.99;82.11;99802.22;5094345;28;20059;-67
2023/11/29 10:13:00;;;;;;;3.13;0.73;;;;;;;1.85;83.22;99804.56;5095927;28;20028;-68
2023/11/29 10:15:26;;;;;;;1.70;0.85;;;;;;;1.78;83.37;99805.38;5097541;28;20081;-68
2023/11/29 10:17:52;;;;;;;2.20;1.23;;;;;;;1.59;83.84;99793.28;5097153;28;20020;-68
2023/11/29 10:20:17;;;;;;;2.50;1.10;;;;;;;1.63;84.00;99794.63;5079031;28;20114;-68
2023/11/29 10:22:48;;;;;;;1.23;0.93;;;;;;;1.52;85.18;99800.22;5097518;28;20027;-68
2023/11/29 10:25:17;;;;;;;1.63;1.00;;;;;;;1.52;85.37;99789.63;5097223;28;20047;-68
2023/11/29 10:27:43;;;;;;;1.88;1.00;;;;;;;1.68;84.17;99773.72;5097175;28;20371;-68
2023/11/29 10:30:09;;;;;;;1.60;0.90;;;;;;;1.78;83.36;99790.28;5097421;28;20031;-67
2023/11/29 10:32:35;;;;;;;2.35;1.10;;;;;;;1.90;83.94;99785.47;5096459;28;20028;-67
2023/11/29 10:35:05;;;;;;;0.90;0.80;;;;;;;1.97;83.10;99780.31;5095967;28;20059;-68
2023/11/29 10:37:31;;;;;;;1.20;1.00;;;;;;;2.00;83.05;99786.13;5096992;28;20028;-67
2023/11/29 10:39:59;;;;;;;0.98;0.88;;;;;;;2.04;83.69;99782.13;5095615;28;20089;-67
2023/11/29 10:42:24;;;;;;;1.00;0.73;;;;;;;2.10;83.18;99775.31;5095578;28;20027;-67
2023/11/29 10:44:51;;;;;;;3.33;0.90;;;;;;;1.79;84.53;99775.22;5096960;28;20490;-68
2023/11/29 10:47:23;;;;;;;1.25;1.00;;;;;;;1.60;85.63;99784.34;5079190;28;20024;-67
2023/11/29 10:49:53;;;;;;;1.30;0.93;;;;;;;1.73;86.03;99781.19;5096512;28;20028;-67
2023/11/29 10:52:18;;;;;;;1.30;0.90;;;;;;;1.90;84.62;99779.34;5096866;28;20065;-67
2023/11/29 10:54:49;;;;;;;1.00;0.80;;;;;;;2.11;83.94;99769.84;5095524;28;20106;-68
2023/11/29 10:57:22;;;;;;;1.65;1.10;;;;;;;2.15;83.11;99780.94;5095370;28;20380;-67
2023/11/29 10:59:57;;;;;;;2.22;0.85;;;;;;;1.97;84.12;99780.31;5092115;28;20052;-67
2023/11/29 11:02:27;;;;;;;1.08;0.75;;;;;;;1.94;84.40;99775.34;5092337;28;20020;-67
2023/11/29 11:05:08;;;;;;;1.92;0.90;;;;;;;2.01;83.98;99781.63;5095568;28;20028;-67
2023/11/29 11:07:44;;;;;;;0.80;0.70;;;;;;;1.97;84.24;99777.69;5094598;28;20031;-67
2023/11/29 11:10:10;;;;;;;1.30;1.00;;;;;;;2.06;83.75;99774.00;5095781;28;20046;-67
2023/11/29 11:12:36;;;;;;;1.35;1.10;;;;;;;2.05;83.00;99769.69;5095167;28;20031;-68
2023/11/29 11:15:07;;;;;;;1.73;0.90;;;;;;;1.86;83.50;99758.47;5096269;28;20036;-67
2023/11/29 11:17:34;;;;;;;2.13;1.10;;;;;;;2.04;83.25;99770.69;5095406;28;20028;-67
2023/11/29 11:20:06;;;;;;;2.75;1.15;;;;;;;1.96;83.33;99768.06;5092731;28;20028;-68
2023/11/29 11:22:40;;;;;;;1.63;1.02;;;;;;;2.09;83.63;99755.94;5096534;28;20070;-67
2023/11/29 11:25:15;;;;;;;1.55;0.98;;;;;;;2.01;83.38;99763.88;5094077;28;20081;-67
2023/11/29 11:27:47;;;;;;;1.58;1.10;;;;;;;2.02;83.40;99770.03;5094321;28;20032;-67